sensor_id;sensor_type;location;lat;lon;timestamp;temperature;humidity
63537;DHT22;49686;51.880;5.632;2022-09-03T00:02:30;14.00;93.00
63537;DHT22;49686;51.880;5.632;2022-09-03T00:04:59;13.90;93.30
63537;DHT22;49686;51.880;5.632;2022-09-03T00:07:31;13.80;93.50
63537;DHT22;49686;51.880;5.632;2022-09-03T00:10:01;13.90;93.40
63537;DHT22;49686;51.880;5.632;2022-09-03T00:12:31;14.00;93.40
63537;DHT22;49686;51.880;5.632;2022-09-03T00:14:59;14.00;93.40
63537;DHT22;49686;51.880;5.632;2022-09-03T00:17:28;14.10;93.30
63537;DHT22;49686;51.880;5.632;2022-09-03T00:19:57;14.00;93.40
63537;DHT22;49686;51.880;5.632;2022-09-03T00:22:26;14.10;93.30
63537;DHT22;49686;51.880;5.632;2022-09-03T00:24:54;14.10;93.40
63537;DHT22;49686;51.880;5.632;2022-09-03T00:27:23;14.10;93.40
63537;DHT22;49686;51.880;5.632;2022-09-03T00:29:51;14.00;93.50
63537;DHT22;49686;51.880;5.632;2022-09-03T00:32:20;14.00;93.50
63537;DHT22;49686;51.880;5.632;2022-09-03T00:34:51;14.00;93.60
63537;DHT22;49686;51.880;5.632;2022-09-03T00:37:21;14.00;93.70
63537;DHT22;49686;51.880;5.632;2022-09-03T00:39:48;14.00;93.70
63537;DHT22;49686;51.880;5.632;2022-09-03T00:42:23;14.00;93.80
63537;DHT22;49686;51.880;5.632;2022-09-03T00:44:56;13.90;93.90
63537;DHT22;49686;51.880;5.632;2022-09-03T00:47:26;14.00;93.90
63537;DHT22;49686;51.880;5.632;2022-09-03T00:49:58;13.90;94.00
63537;DHT22;49686;51.880;5.632;2022-09-03T00:52:31;13.90;94.20
63537;DHT22;49686;51.880;5.632;2022-09-03T00:55:01;13.80;94.20
63537;DHT22;49686;51.880;5.632;2022-09-03T00:57:34;13.80;94.30
63537;DHT22;49686;51.880;5.632;2022-09-03T01:00:04;13.80;94.40
63537;DHT22;49686;51.880;5.632;2022-09-03T01:02:38;13.70;94.50
63537;DHT22;49686;51.880;5.632;2022-09-03T01:05:09;13.60;94.60
63537;DHT22;49686;51.880;5.632;2022-09-03T01:07:39;13.70;94.60
63537;DHT22;49686;51.880;5.632;2022-09-03T01:10:12;13.60;94.60
63537;DHT22;49686;51.880;5.632;2022-09-03T01:12:45;13.70;94.50
63537;DHT22;49686;51.880;5.632;2022-09-03T01:15:14;13.70;94.60
63537;DHT22;49686;51.880;5.632;2022-09-03T01:17:50;13.60;94.70
63537;DHT22;49686;51.880;5.632;2022-09-03T01:20:22;13.60;94.90
63537;DHT22;49686;51.880;5.632;2022-09-03T01:23:00;13.70;94.90
63537;DHT22;49686;51.880;5.632;2022-09-03T01:25:37;13.70;94.90
63537;DHT22;49686;51.880;5.632;2022-09-03T01:28:13;13.60;95.00
63537;DHT22;49686;51.880;5.632;2022-09-03T01:30:44;13.60;95.10
63537;DHT22;49686;51.880;5.632;2022-09-03T01:33:17;13.50;95.10
63537;DHT22;49686;51.880;5.632;2022-09-03T01:35:45;13.60;95.20
63537;DHT22;49686;51.880;5.632;2022-09-03T01:38:15;13.60;95.30
63537;DHT22;49686;51.880;5.632;2022-09-03T01:40:49;13.50;95.40
63537;DHT22;49686;51.880;5.632;2022-09-03T01:43:26;13.50;95.40
63537;DHT22;49686;51.880;5.632;2022-09-03T01:46:01;13.50;95.40
63537;DHT22;49686;51.880;5.632;2022-09-03T01:48:37;13.50;95.60
63537;DHT22;49686;51.880;5.632;2022-09-03T01:51:10;13.50;95.60
63537;DHT22;49686;51.880;5.632;2022-09-03T01:53:40;13.50;95.60
63537;DHT22;49686;51.880;5.632;2022-09-03T01:56:16;13.50;95.60
63537;DHT22;49686;51.880;5.632;2022-09-03T01:58:46;13.60;95.70
63537;DHT22;49686;51.880;5.632;2022-09-03T02:01:16;13.60;95.80
63537;DHT22;49686;51.880;5.632;2022-09-03T02:03:45;13.50;95.90
63537;DHT22;49686;51.880;5.632;2022-09-03T02:06:12;13.60;95.90
63537;DHT22;49686;51.880;5.632;2022-09-03T02:08:40;13.60;96.00
63537;DHT22;49686;51.880;5.632;2022-09-03T02:11:07;13.60;96.00
63537;DHT22;49686;51.880;5.632;2022-09-03T02:13:35;13.60;96.00
63537;DHT22;49686;51.880;5.632;2022-09-03T02:16:06;13.50;96.20
63537;DHT22;49686;51.880;5.632;2022-09-03T02:18:36;13.50;96.20
63537;DHT22;49686;51.880;5.632;2022-09-03T02:21:04;13.50;96.20
63537;DHT22;49686;51.880;5.632;2022-09-03T02:23:32;13.60;96.10
63537;DHT22;49686;51.880;5.632;2022-09-03T02:25:59;13.60;96.10
63537;DHT22;49686;51.880;5.632;2022-09-03T02:28:27;13.60;96.10
63537;DHT22;49686;51.880;5.632;2022-09-03T02:30:54;13.70;96.10
63537;DHT22;49686;51.880;5.632;2022-09-03T02:33:22;13.70;96.10
63537;DHT22;49686;51.880;5.632;2022-09-03T02:35:50;13.70;96.30
63537;DHT22;49686;51.880;5.632;2022-09-03T02:38:17;13.60;96.30
63537;DHT22;49686;51.880;5.632;2022-09-03T02:40:45;13.60;96.30
63537;DHT22;49686;51.880;5.632;2022-09-03T02:43:12;13.60;96.40
63537;DHT22;49686;51.880;5.632;2022-09-03T02:45:41;13.50;96.40
63537;DHT22;49686;51.880;5.632;2022-09-03T02:48:08;13.50;96.50
63537;DHT22;49686;51.880;5.632;2022-09-03T02:50:40;13.50;96.60
63537;DHT22;49686;51.880;5.632;2022-09-03T02:53:07;13.40;96.60
63537;DHT22;49686;51.880;5.632;2022-09-03T02:55:33;13.40;96.80
63537;DHT22;49686;51.880;5.632;2022-09-03T02:58:01;13.30;96.80
63537;DHT22;49686;51.880;5.632;2022-09-03T03:00:27;13.20;97.00
63537;DHT22;49686;51.880;5.632;2022-09-03T03:02:54;13.30;97.30
63537;DHT22;49686;51.880;5.632;2022-09-03T03:05:23;13.20;97.00
63537;DHT22;49686;51.880;5.632;2022-09-03T03:07:53;13.20;97.10
63537;DHT22;49686;51.880;5.632;2022-09-03T03:10:19;13.20;97.10
63537;DHT22;49686;51.880;5.632;2022-09-03T03:12:47;13.20;97.10
63537;DHT22;49686;51.880;5.632;2022-09-03T03:15:13;13.20;97.20
63537;DHT22;49686;51.880;5.632;2022-09-03T03:17:40;13.30;97.10
63537;DHT22;49686;51.880;5.632;2022-09-03T03:20:08;13.30;97.00
63537;DHT22;49686;51.880;5.632;2022-09-03T03:22:34;13.20;97.10
63537;DHT22;49686;51.880;5.632;2022-09-03T03:25:02;13.30;97.10
63537;DHT22;49686;51.880;5.632;2022-09-03T03:27:30;13.30;97.10
63537;DHT22;49686;51.880;5.632;2022-09-03T03:29:56;13.30;97.10
63537;DHT22;49686;51.880;5.632;2022-09-03T03:32:23;13.20;97.20
63537;DHT22;49686;51.880;5.632;2022-09-03T03:34:50;13.20;97.30
63537;DHT22;49686;51.880;5.632;2022-09-03T03:37:17;13.20;97.30
63537;DHT22;49686;51.880;5.632;2022-09-03T03:39:44;13.20;97.40
63537;DHT22;49686;51.880;5.632;2022-09-03T03:42:12;13.10;97.50
63537;DHT22;49686;51.880;5.632;2022-09-03T03:44:39;13.10;97.70
63537;DHT22;49686;51.880;5.632;2022-09-03T03:47:05;13.00;97.80
63537;DHT22;49686;51.880;5.632;2022-09-03T03:49:33;13.00;97.90
63537;DHT22;49686;51.880;5.632;2022-09-03T03:51:59;12.90;98.10
63537;DHT22;49686;51.880;5.632;2022-09-03T03:54:26;13.00;98.20
63537;DHT22;49686;51.880;5.632;2022-09-03T03:56:53;12.80;98.30
63537;DHT22;49686;51.880;5.632;2022-09-03T03:59:22;12.90;98.40
63537;DHT22;49686;51.880;5.632;2022-09-03T04:01:49;12.80;98.50
63537;DHT22;49686;51.880;5.632;2022-09-03T04:04:16;12.80;98.70
63537;DHT22;49686;51.880;5.632;2022-09-03T04:06:43;12.70;98.90
63537;DHT22;49686;51.880;5.632;2022-09-03T04:09:12;12.70;98.90
63537;DHT22;49686;51.880;5.632;2022-09-03T04:11:39;12.60;99.30
63537;DHT22;49686;51.880;5.632;2022-09-03T04:14:06;12.50;99.40
63537;DHT22;49686;51.880;5.632;2022-09-03T04:16:34;12.50;99.60
63537;DHT22;49686;51.880;5.632;2022-09-03T04:19:01;12.40;99.90
63537;DHT22;49686;51.880;5.632;2022-09-03T04:21:29;12.40;99.90
63537;DHT22;49686;51.880;5.632;2022-09-03T04:23:56;12.40;99.90
63537;DHT22;49686;51.880;5.632;2022-09-03T04:26:24;12.40;99.90
63537;DHT22;49686;51.880;5.632;2022-09-03T04:28:52;12.40;99.90
63537;DHT22;49686;51.880;5.632;2022-09-03T04:31:19;12.30;99.90
63537;DHT22;49686;51.880;5.632;2022-09-03T04:33:47;12.30;99.90
63537;DHT22;49686;51.880;5.632;2022-09-03T04:36:15;12.20;99.90
63537;DHT22;49686;51.880;5.632;2022-09-03T04:38:42;12.20;99.90
63537;DHT22;49686;51.880;5.632;2022-09-03T04:41:10;12.10;99.90
63537;DHT22;49686;51.880;5.632;2022-09-03T04:43:37;12.10;99.90
63537;DHT22;49686;51.880;5.632;2022-09-03T04:46:05;12.10;99.90
63537;DHT22;49686;51.880;5.632;2022-09-03T04:48:32;12.10;99.90
63537;DHT22;49686;51.880;5.632;2022-09-03T04:51:05;12.00;99.90
63537;DHT22;49686;51.880;5.632;2022-09-03T04:53:33;12.10;99.90
63537;DHT22;49686;51.880;5.632;2022-09-03T04:56:00;12.10;99.90
63537;DHT22;49686;51.880;5.632;2022-09-03T04:58:27;12.00;99.90
63537;DHT22;49686;51.880;5.632;2022-09-03T05:00:54;11.90;99.90
63537;DHT22;49686;51.880;5.632;2022-09-03T05:03:21;12.00;99.90
63537;DHT22;49686;51.880;5.632;2022-09-03T05:05:52;12.00;99.90
63537;DHT22;49686;51.880;5.632;2022-09-03T05:08:20;11.90;99.90
63537;DHT22;49686;51.880;5.632;2022-09-03T05:10:47;11.90;99.90
63537;DHT22;49686;51.880;5.632;2022-09-03T05:13:17;11.90;99.90
63537;DHT22;49686;51.880;5.632;2022-09-03T05:15:43;11.90;99.90
63537;DHT22;49686;51.880;5.632;2022-09-03T05:18:10;11.90;99.90
63537;DHT22;49686;51.880;5.632;2022-09-03T05:20:37;11.90;99.90
63537;DHT22;49686;51.880;5.632;2022-09-03T05:23:04;11.90;99.90
63537;DHT22;49686;51.880;5.632;2022-09-03T05:25:32;12.00;99.90
63537;DHT22;49686;51.880;5.632;2022-09-03T05:27:59;12.00;99.90
63537;DHT22;49686;51.880;5.632;2022-09-03T05:30:26;12.10;99.90
63537;DHT22;49686;51.880;5.632;2022-09-03T05:32:53;12.10;99.90
63537;DHT22;49686;51.880;5.632;2022-09-03T05:35:20;12.20;99.90
63537;DHT22;49686;51.880;5.632;2022-09-03T05:37:53;12.20;99.90
63537;DHT22;49686;51.880;5.632;2022-09-03T05:40:20;12.20;99.90
63537;DHT22;49686;51.880;5.632;2022-09-03T05:42:48;12.30;99.90
63537;DHT22;49686;51.880;5.632;2022-09-03T05:45:19;12.30;99.90
63537;DHT22;49686;51.880;5.632;2022-09-03T05:47:46;12.40;99.90
63537;DHT22;49686;51.880;5.632;2022-09-03T05:50:13;12.60;99.90
63537;DHT22;49686;51.880;5.632;2022-09-03T05:52:40;12.60;99.90
63537;DHT22;49686;51.880;5.632;2022-09-03T05:55:07;12.70;99.90
63537;DHT22;49686;51.880;5.632;2022-09-03T05:57:39;12.70;99.90
63537;DHT22;49686;51.880;5.632;2022-09-03T06:00:08;12.80;99.90
63537;DHT22;49686;51.880;5.632;2022-09-03T06:02:35;12.90;99.90
63537;DHT22;49686;51.880;5.632;2022-09-03T06:05:02;13.00;99.90
63537;DHT22;49686;51.880;5.632;2022-09-03T06:09:06;13.10;99.90
63537;DHT22;49686;51.880;5.632;2022-09-03T06:11:35;13.20;99.90
63537;DHT22;49686;51.880;5.632;2022-09-03T06:14:04;13.30;99.90
63537;DHT22;49686;51.880;5.632;2022-09-03T06:16:33;13.40;99.90
63537;DHT22;49686;51.880;5.632;2022-09-03T06:19:00;13.50;99.90
63537;DHT22;49686;51.880;5.632;2022-09-03T06:21:28;13.60;99.90
63537;DHT22;49686;51.880;5.632;2022-09-03T06:23:56;13.70;99.90
63537;DHT22;49686;51.880;5.632;2022-09-03T06:26:28;14.30;98.80
63537;DHT22;49686;51.880;5.632;2022-09-03T06:28:55;15.70;96.20
63537;DHT22;49686;51.880;5.632;2022-09-03T06:31:23;15.90;95.60
63537;DHT22;49686;51.880;5.632;2022-09-03T06:33:51;16.40;94.60
63537;DHT22;49686;51.880;5.632;2022-09-03T06:36:19;17.20;93.80
63537;DHT22;49686;51.880;5.632;2022-09-03T06:38:46;16.70;93.90
63537;DHT22;49686;51.880;5.632;2022-09-03T06:41:15;16.80;93.60
63537;DHT22;49686;51.880;5.632;2022-09-03T06:43:44;17.50;92.90
63537;DHT22;49686;51.880;5.632;2022-09-03T06:46:12;17.20;93.20
63537;DHT22;49686;51.880;5.632;2022-09-03T06:48:40;17.20;93.10
63537;DHT22;49686;51.880;5.632;2022-09-03T06:51:13;16.90;93.40
63537;DHT22;49686;51.880;5.632;2022-09-03T06:53:43;17.40;92.70
63537;DHT22;49686;51.880;5.632;2022-09-03T06:56:12;18.00;92.10
63537;DHT22;49686;51.880;5.632;2022-09-03T06:58:41;17.70;92.30
63537;DHT22;49686;51.880;5.632;2022-09-03T07:01:11;18.10;92.00
63537;DHT22;49686;51.880;5.632;2022-09-03T07:03:40;18.90;91.30
63537;DHT22;49686;51.880;5.632;2022-09-03T07:06:09;18.30;91.20
63537;DHT22;49686;51.880;5.632;2022-09-03T07:08:36;18.40;91.40
63537;DHT22;49686;51.880;5.632;2022-09-03T07:11:05;18.50;91.00
63537;DHT22;49686;51.880;5.632;2022-09-03T07:13:33;18.60;90.90
63537;DHT22;49686;51.880;5.632;2022-09-03T07:16:01;18.80;90.80
63537;DHT22;49686;51.880;5.632;2022-09-03T07:18:31;18.90;91.00
63537;DHT22;49686;51.880;5.632;2022-09-03T07:21:00;18.70;91.10
63537;DHT22;49686;51.880;5.632;2022-09-03T07:23:28;19.00;90.90
63537;DHT22;49686;51.880;5.632;2022-09-03T07:25:56;19.20;90.80
63537;DHT22;49686;51.880;5.632;2022-09-03T07:28:25;19.10;90.40
63537;DHT22;49686;51.880;5.632;2022-09-03T07:30:52;19.10;90.50
63537;DHT22;49686;51.880;5.632;2022-09-03T07:33:20;19.00;90.50
63537;DHT22;49686;51.880;5.632;2022-09-03T07:35:48;19.20;90.30
63537;DHT22;49686;51.880;5.632;2022-09-03T07:38:18;19.80;89.40
63537;DHT22;49686;51.880;5.632;2022-09-03T07:40:45;19.80;89.70
63537;DHT22;49686;51.880;5.632;2022-09-03T07:43:13;19.60;89.20
63537;DHT22;49686;51.880;5.632;2022-09-03T07:45:40;18.80;90.60
63537;DHT22;49686;51.880;5.632;2022-09-03T07:48:06;18.70;90.50
63537;DHT22;49686;51.880;5.632;2022-09-03T07:50:34;18.60;90.70
63537;DHT22;49686;51.880;5.632;2022-09-03T07:53:02;18.90;90.30
63537;DHT22;49686;51.880;5.632;2022-09-03T07:55:29;18.70;90.50
63537;DHT22;49686;51.880;5.632;2022-09-03T07:57:56;19.20;90.00
63537;DHT22;49686;51.880;5.632;2022-09-03T08:00:23;19.00;90.30
63537;DHT22;49686;51.880;5.632;2022-09-03T08:02:54;19.30;90.00
63537;DHT22;49686;51.880;5.632;2022-09-03T08:05:22;20.00;89.20
63537;DHT22;49686;51.880;5.632;2022-09-03T08:07:49;19.40;89.00
63537;DHT22;49686;51.880;5.632;2022-09-03T08:10:17;18.90;89.80
63537;DHT22;49686;51.880;5.632;2022-09-03T08:12:44;19.30;89.90
63537;DHT22;49686;51.880;5.632;2022-09-03T08:15:11;19.80;88.60
63537;DHT22;49686;51.880;5.632;2022-09-03T08:17:42;19.50;89.90
63537;DHT22;49686;51.880;5.632;2022-09-03T08:20:10;19.10;89.50
63537;DHT22;49686;51.880;5.632;2022-09-03T08:22:36;19.60;88.80
63537;DHT22;49686;51.880;5.632;2022-09-03T08:25:04;19.40;89.30
63537;DHT22;49686;51.880;5.632;2022-09-03T08:27:33;19.30;89.70
63537;DHT22;49686;51.880;5.632;2022-09-03T08:30:00;19.50;89.00
63537;DHT22;49686;51.880;5.632;2022-09-03T08:32:27;19.10;89.10
63537;DHT22;49686;51.880;5.632;2022-09-03T08:34:55;19.60;89.10
63537;DHT22;49686;51.880;5.632;2022-09-03T08:37:21;19.60;89.10
63537;DHT22;49686;51.880;5.632;2022-09-03T08:39:48;20.00;88.40
63537;DHT22;49686;51.880;5.632;2022-09-03T08:42:23;19.90;88.10
63537;DHT22;49686;51.880;5.632;2022-09-03T08:44:54;20.30;86.50
63537;DHT22;49686;51.880;5.632;2022-09-03T08:47:25;20.20;87.20
63537;DHT22;49686;51.880;5.632;2022-09-03T08:49:56;20.30;86.70
63537;DHT22;49686;51.880;5.632;2022-09-03T08:52:28;20.50;87.30
63537;DHT22;49686;51.880;5.632;2022-09-03T08:55:19;20.40;87.10
63537;DHT22;49686;51.880;5.632;2022-09-03T08:57:49;21.00;85.70
63537;DHT22;49686;51.880;5.632;2022-09-03T09:00:20;21.30;85.80
63537;DHT22;49686;51.880;5.632;2022-09-03T09:02:58;20.60;86.10
63537;DHT22;49686;51.880;5.632;2022-09-03T09:05:39;20.40;87.20
63537;DHT22;49686;51.880;5.632;2022-09-03T09:08:15;20.50;86.70
63537;DHT22;49686;51.880;5.632;2022-09-03T09:10:47;20.50;86.60
63537;DHT22;49686;51.880;5.632;2022-09-03T09:13:23;21.20;85.40
63537;DHT22;49686;51.880;5.632;2022-09-03T09:16:02;21.20;85.40
63537;DHT22;49686;51.880;5.632;2022-09-03T09:18:45;21.00;85.40
63537;DHT22;49686;51.880;5.632;2022-09-03T09:21:16;21.80;84.90
63537;DHT22;49686;51.880;5.632;2022-09-03T09:23:50;21.40;83.60
63537;DHT22;49686;51.880;5.632;2022-09-03T09:26:19;21.10;84.70
63537;DHT22;49686;51.880;5.632;2022-09-03T09:28:46;21.70;83.90
63537;DHT22;49686;51.880;5.632;2022-09-03T09:31:18;21.60;84.60
63537;DHT22;49686;51.880;5.632;2022-09-03T09:33:45;21.50;84.60
63537;DHT22;49686;51.880;5.632;2022-09-03T09:36:14;22.20;83.50
63537;DHT22;49686;51.880;5.632;2022-09-03T09:38:43;22.10;83.20
63537;DHT22;49686;51.880;5.632;2022-09-03T09:41:11;22.00;82.90
63537;DHT22;49686;51.880;5.632;2022-09-03T09:43:39;22.50;81.80
63537;DHT22;49686;51.880;5.632;2022-09-03T09:46:11;22.70;81.50
63537;DHT22;49686;51.880;5.632;2022-09-03T09:48:46;24.00;80.20
63537;DHT22;49686;51.880;5.632;2022-09-03T09:51:19;23.20;80.00
63537;DHT22;49686;51.880;5.632;2022-09-03T09:53:46;23.00;80.00
63537;DHT22;49686;51.880;5.632;2022-09-03T09:56:20;23.00;80.80
63537;DHT22;49686;51.880;5.632;2022-09-03T09:58:47;22.40;80.20
63537;DHT22;49686;51.880;5.632;2022-09-03T10:01:19;22.30;80.50
63537;DHT22;49686;51.880;5.632;2022-09-03T10:03:51;21.80;80.60
63537;DHT22;49686;51.880;5.632;2022-09-03T10:06:18;22.60;80.60
63537;DHT22;49686;51.880;5.632;2022-09-03T10:08:48;22.80;80.00
63537;DHT22;49686;51.880;5.632;2022-09-03T10:11:16;22.20;80.70
63537;DHT22;49686;51.880;5.632;2022-09-03T10:13:45;22.10;80.30
63537;DHT22;49686;51.880;5.632;2022-09-03T10:16:20;22.60;80.20
63537;DHT22;49686;51.880;5.632;2022-09-03T10:18:56;23.20;79.30
63537;DHT22;49686;51.880;5.632;2022-09-03T10:21:29;23.20;79.10
63537;DHT22;49686;51.880;5.632;2022-09-03T10:24:02;23.20;78.30
63537;DHT22;49686;51.880;5.632;2022-09-03T10:26:35;23.00;79.80
63537;DHT22;49686;51.880;5.632;2022-09-03T10:29:03;23.20;79.40
63537;DHT22;49686;51.880;5.632;2022-09-03T10:31:41;23.30;78.50
63537;DHT22;49686;51.880;5.632;2022-09-03T10:34:17;23.30;78.70
63537;DHT22;49686;51.880;5.632;2022-09-03T10:36:49;22.90;78.70
63537;DHT22;49686;51.880;5.632;2022-09-03T10:39:22;23.30;78.80
63537;DHT22;49686;51.880;5.632;2022-09-03T10:42:02;23.10;79.00
63537;DHT22;49686;51.880;5.632;2022-09-03T10:44:49;22.60;78.70
63537;DHT22;49686;51.880;5.632;2022-09-03T10:47:34;23.40;78.20
63537;DHT22;49686;51.880;5.632;2022-09-03T10:50:09;23.60;77.50
63537;DHT22;49686;51.880;5.632;2022-09-03T10:52:51;23.70;77.10
63537;DHT22;49686;51.880;5.632;2022-09-03T10:55:29;23.30;77.40
63537;DHT22;49686;51.880;5.632;2022-09-03T10:58:10;23.70;77.70
63537;DHT22;49686;51.880;5.632;2022-09-03T11:00:50;24.00;77.00
63537;DHT22;49686;51.880;5.632;2022-09-03T11:03:37;23.60;77.20
63537;DHT22;49686;51.880;5.632;2022-09-03T11:06:13;23.40;77.70
63537;DHT22;49686;51.880;5.632;2022-09-03T11:08:42;23.20;77.90
63537;DHT22;49686;51.880;5.632;2022-09-03T11:11:14;24.10;76.60
63537;DHT22;49686;51.880;5.632;2022-09-03T11:13:47;23.90;76.90
63537;DHT22;49686;51.880;5.632;2022-09-03T11:16:19;23.90;77.10
63537;DHT22;49686;51.880;5.632;2022-09-03T11:18:51;25.10;75.30
63537;DHT22;49686;51.880;5.632;2022-09-03T11:21:24;24.70;75.30
63537;DHT22;49686;51.880;5.632;2022-09-03T11:24:01;24.70;75.40
63537;DHT22;49686;51.880;5.632;2022-09-03T11:26:32;24.20;76.00
63537;DHT22;49686;51.880;5.632;2022-09-03T11:29:02;24.20;75.40
63537;DHT22;49686;51.880;5.632;2022-09-03T11:31:37;23.70;76.50
63537;DHT22;49686;51.880;5.632;2022-09-03T11:34:07;24.00;76.20
63537;DHT22;49686;51.880;5.632;2022-09-03T11:36:39;24.00;75.90
63537;DHT22;49686;51.880;5.632;2022-09-03T11:39:14;23.90;76.10
63537;DHT22;49686;51.880;5.632;2022-09-03T11:41:47;24.30;75.70
63537;DHT22;49686;51.880;5.632;2022-09-03T11:44:22;24.30;75.80
63537;DHT22;49686;51.880;5.632;2022-09-03T11:46:53;24.40;75.60
63537;DHT22;49686;51.880;5.632;2022-09-03T11:49:27;24.10;76.40
63537;DHT22;49686;51.880;5.632;2022-09-03T11:52:00;24.40;75.70
63537;DHT22;49686;51.880;5.632;2022-09-03T11:54:30;24.10;75.10
63537;DHT22;49686;51.880;5.632;2022-09-03T11:57:08;25.50;74.60
63537;DHT22;49686;51.880;5.632;2022-09-03T11:59:36;24.40;75.50
63537;DHT22;49686;51.880;5.632;2022-09-03T12:02:12;24.80;75.10
63537;DHT22;49686;51.880;5.632;2022-09-03T12:04:45;24.80;74.70
63537;DHT22;49686;51.880;5.632;2022-09-03T12:07:31;24.60;75.00
63537;DHT22;49686;51.880;5.632;2022-09-03T12:10:37;24.70;75.10
63537;DHT22;49686;51.880;5.632;2022-09-03T12:13:25;24.80;74.30
63537;DHT22;49686;51.880;5.632;2022-09-03T12:16:11;25.10;74.20
63537;DHT22;49686;51.880;5.632;2022-09-03T12:18:42;25.00;75.10
63537;DHT22;49686;51.880;5.632;2022-09-03T12:21:10;24.70;74.90
63537;DHT22;49686;51.880;5.632;2022-09-03T12:23:42;25.10;74.60
63537;DHT22;49686;51.880;5.632;2022-09-03T12:26:13;25.70;73.40
63537;DHT22;49686;51.880;5.632;2022-09-03T12:28:41;25.30;74.20
63537;DHT22;49686;51.880;5.632;2022-09-03T12:31:15;25.80;73.50
63537;DHT22;49686;51.880;5.632;2022-09-03T12:33:42;25.50;73.80
63537;DHT22;49686;51.880;5.632;2022-09-03T12:36:12;24.80;75.20
63537;DHT22;49686;51.880;5.632;2022-09-03T12:38:41;24.40;74.80
63537;DHT22;49686;51.880;5.632;2022-09-03T12:41:29;24.60;74.90
63537;DHT22;49686;51.880;5.632;2022-09-03T12:43:58;25.00;74.20
63537;DHT22;49686;51.880;5.632;2022-09-03T12:46:27;25.30;73.70
63537;DHT22;49686;51.880;5.632;2022-09-03T12:49:02;24.80;74.10
63537;DHT22;49686;51.880;5.632;2022-09-03T12:51:49;25.20;74.30
63537;DHT22;49686;51.880;5.632;2022-09-03T12:54:25;25.70;73.00
63537;DHT22;49686;51.880;5.632;2022-09-03T12:56:55;25.00;73.70
63537;DHT22;49686;51.880;5.632;2022-09-03T12:59:23;25.20;73.30
63537;DHT22;49686;51.880;5.632;2022-09-03T13:01:56;25.10;73.70
63537;DHT22;49686;51.880;5.632;2022-09-03T13:04:26;25.80;72.70
63537;DHT22;49686;51.880;5.632;2022-09-03T13:06:59;25.90;72.30
63537;DHT22;49686;51.880;5.632;2022-09-03T13:09:30;25.80;72.60
63537;DHT22;49686;51.880;5.632;2022-09-03T13:11:59;25.70;72.50
63537;DHT22;49686;51.880;5.632;2022-09-03T13:14:26;25.40;72.90
63537;DHT22;49686;51.880;5.632;2022-09-03T13:17:20;25.40;72.80
63537;DHT22;49686;51.880;5.632;2022-09-03T13:20:02;25.80;71.40
63537;DHT22;49686;51.880;5.632;2022-09-03T13:22:37;25.60;72.10
63537;DHT22;49686;51.880;5.632;2022-09-03T13:25:15;25.50;72.30
63537;DHT22;49686;51.880;5.632;2022-09-03T13:27:56;25.40;72.80
63537;DHT22;49686;51.880;5.632;2022-09-03T13:30:29;25.20;72.90
63537;DHT22;49686;51.880;5.632;2022-09-03T13:33:01;25.90;72.10
63537;DHT22;49686;51.880;5.632;2022-09-03T13:35:36;25.80;71.50
63537;DHT22;49686;51.880;5.632;2022-09-03T13:38:11;25.70;71.50
63537;DHT22;49686;51.880;5.632;2022-09-03T13:40:45;26.80;71.30
63537;DHT22;49686;51.880;5.632;2022-09-03T13:43:22;26.40;70.90
63537;DHT22;49686;51.880;5.632;2022-09-03T13:45:53;26.60;71.00
63537;DHT22;49686;51.880;5.632;2022-09-03T13:48:27;26.50;71.00
63537;DHT22;49686;51.880;5.632;2022-09-03T13:51:02;25.80;71.20
63537;DHT22;49686;51.880;5.632;2022-09-03T13:53:39;26.10;71.10
63537;DHT22;49686;51.880;5.632;2022-09-03T13:56:20;26.10;70.60
63537;DHT22;49686;51.880;5.632;2022-09-03T13:58:54;27.30;70.00
63537;DHT22;49686;51.880;5.632;2022-09-03T14:01:25;26.10;70.20
63537;DHT22;49686;51.880;5.632;2022-09-03T14:03:55;26.00;70.50
63537;DHT22;49686;51.880;5.632;2022-09-03T14:06:39;26.50;69.30
63537;DHT22;49686;51.880;5.632;2022-09-03T14:09:14;26.60;69.60
63537;DHT22;49686;51.880;5.632;2022-09-03T14:11:52;26.80;69.40
63537;DHT22;49686;51.880;5.632;2022-09-03T14:14:32;26.70;69.70
63537;DHT22;49686;51.880;5.632;2022-09-03T14:17:07;26.30;69.60
63537;DHT22;49686;51.880;5.632;2022-09-03T14:19:42;26.80;69.30
63537;DHT22;49686;51.880;5.632;2022-09-03T14:22:14;26.80;68.90
63537;DHT22;49686;51.880;5.632;2022-09-03T14:24:46;27.30;68.20
63537;DHT22;49686;51.880;5.632;2022-09-03T14:27:24;27.50;68.20
63537;DHT22;49686;51.880;5.632;2022-09-03T14:29:57;27.40;68.20
63537;DHT22;49686;51.880;5.632;2022-09-03T14:32:28;27.10;69.00
63537;DHT22;49686;51.880;5.632;2022-09-03T14:35:11;26.60;68.60
63537;DHT22;49686;51.880;5.632;2022-09-03T14:37:53;26.40;69.20
63537;DHT22;49686;51.880;5.632;2022-09-03T14:40:29;25.90;69.40
63537;DHT22;49686;51.880;5.632;2022-09-03T14:43:08;26.00;69.50
63537;DHT22;49686;51.880;5.632;2022-09-03T14:46:00;26.20;68.80
63537;DHT22;49686;51.880;5.632;2022-09-03T14:48:50;26.50;68.70
63537;DHT22;49686;51.880;5.632;2022-09-03T14:51:30;26.60;69.10
63537;DHT22;49686;51.880;5.632;2022-09-03T14:54:26;26.70;68.20
63537;DHT22;49686;51.880;5.632;2022-09-03T14:57:07;26.40;68.20
63537;DHT22;49686;51.880;5.632;2022-09-03T14:59:54;26.30;68.50
63537;DHT22;49686;51.880;5.632;2022-09-03T15:02:58;26.70;68.20
63537;DHT22;49686;51.880;5.632;2022-09-03T15:05:53;27.10;68.10
63537;DHT22;49686;51.880;5.632;2022-09-03T15:09:02;26.50;67.60
63537;DHT22;49686;51.880;5.632;2022-09-03T15:11:45;26.40;68.30
63537;DHT22;49686;51.880;5.632;2022-09-03T15:14:17;26.50;67.90
63537;DHT22;49686;51.880;5.632;2022-09-03T15:16:54;25.90;68.40
63537;DHT22;49686;51.880;5.632;2022-09-03T15:19:37;26.60;68.20
63537;DHT22;49686;51.880;5.632;2022-09-03T15:22:12;26.50;68.00
63537;DHT22;49686;51.880;5.632;2022-09-03T15:24:50;26.30;68.40
63537;DHT22;49686;51.880;5.632;2022-09-03T15:27:35;25.90;67.70
63537;DHT22;49686;51.880;5.632;2022-09-03T15:30:07;26.10;68.60
63537;DHT22;49686;51.880;5.632;2022-09-03T15:32:47;25.90;68.40
63537;DHT22;49686;51.880;5.632;2022-09-03T15:35:30;26.30;68.00
63537;DHT22;49686;51.880;5.632;2022-09-03T15:38:01;25.90;67.90
63537;DHT22;49686;51.880;5.632;2022-09-03T15:40:32;25.90;67.50
63537;DHT22;49686;51.880;5.632;2022-09-03T15:43:06;26.00;67.70
63537;DHT22;49686;51.880;5.632;2022-09-03T15:45:38;26.00;67.30
63537;DHT22;49686;51.880;5.632;2022-09-03T15:48:20;26.20;67.60
63537;DHT22;49686;51.880;5.632;2022-09-03T15:50:52;25.60;68.50
63537;DHT22;49686;51.880;5.632;2022-09-03T15:53:28;25.90;68.90
63537;DHT22;49686;51.880;5.632;2022-09-03T15:56:06;25.90;68.30
63537;DHT22;49686;51.880;5.632;2022-09-03T15:58:44;25.80;67.70
63537;DHT22;49686;51.880;5.632;2022-09-03T16:01:21;25.70;68.30